sensor_id;sensor_type;location;lat;lon;timestamp;pressure;altitude;pressure_sealevel;temperature;humidity
59545;BME280;45368;55.002;-1.592;2022-08-06T00:02:08;101922.67;;;12.32;50.84
59545;BME280;45368;55.002;-1.592;2022-08-06T00:04:35;101926.95;;;12.61;51.43
59545;BME280;45368;55.002;-1.592;2022-08-06T00:07:03;101928.15;;;12.89;50.32
59545;BME280;45368;55.002;-1.592;2022-08-06T00:09:30;101928.27;;;12.87;49.92
59545;BME280;45368;55.002;-1.592;2022-08-06T00:11:57;101930.88;;;12.47;51.47
59545;BME280;45368;55.002;-1.592;2022-08-06T00:14:25;101934.97;;;12.57;51.36
59545;BME280;45368;55.002;-1.592;2022-08-06T00:16:53;101942.37;;;12.25;51.41
59545;BME280;45368;55.002;-1.592;2022-08-06T00:19:20;101941.49;;;13.10;49.91
59545;BME280;45368;55.002;-1.592;2022-08-06T00:21:47;101944.25;;;12.31;51.24
59545;BME280;45368;55.002;-1.592;2022-08-06T00:24:14;101942.19;;;11.62;52.44
59545;BME280;45368;55.002;-1.592;2022-08-06T00:26:41;101939.86;;;11.94;52.70
59545;BME280;45368;55.002;-1.592;2022-08-06T00:29:08;101935.09;;;12.08;52.80
59545;BME280;45368;55.002;-1.592;2022-08-06T00:31:35;101938.68;;;11.89;52.48
59545;BME280;45368;55.002;-1.592;2022-08-06T00:34:03;101943.78;;;11.86;52.10
59545;BME280;45368;55.002;-1.592;2022-08-06T00:36:31;101938.67;;;12.25;51.97
59545;BME280;45368;55.002;-1.592;2022-08-06T00:39:00;101938.56;;;12.04;52.29
59545;BME280;45368;55.002;-1.592;2022-08-06T00:41:29;101942.04;;;12.46;51.93
59545;BME280;45368;55.002;-1.592;2022-08-06T00:43:57;101943.59;;;12.07;52.63
59545;BME280;45368;55.002;-1.592;2022-08-06T00:46:25;101942.51;;;11.93;52.78
59545;BME280;45368;55.002;-1.592;2022-08-06T00:48:53;101942.81;;;12.07;51.73
59545;BME280;45368;55.002;-1.592;2022-08-06T00:51:20;101946.31;;;12.43;51.63
59545;BME280;45368;55.002;-1.592;2022-08-06T00:53:48;101948.86;;;12.42;51.80
59545;BME280;45368;55.002;-1.592;2022-08-06T00:56:16;101949.55;;;12.08;52.26
59545;BME280;45368;55.002;-1.592;2022-08-06T00:58:43;101953.42;;;12.64;51.25
59545;BME280;45368;55.002;-1.592;2022-08-06T01:01:11;101954.47;;;11.77;53.14
59545;BME280;45368;55.002;-1.592;2022-08-06T01:03:38;101950.79;;;12.28;51.65
59545;BME280;45368;55.002;-1.592;2022-08-06T01:06:05;101953.09;;;12.30;51.58
59545;BME280;45368;55.002;-1.592;2022-08-06T01:08:32;101955.97;;;12.52;50.67
59545;BME280;45368;55.002;-1.592;2022-08-06T01:11:00;101956.22;;;11.58;52.46
59545;BME280;45368;55.002;-1.592;2022-08-06T01:13:27;101950.03;;;11.51;53.58
59545;BME280;45368;55.002;-1.592;2022-08-06T01:16:03;101949.30;;;12.02;52.17
59545;BME280;45368;55.002;-1.592;2022-08-06T01:18:36;101952.11;;;11.88;53.09
59545;BME280;45368;55.002;-1.592;2022-08-06T01:21:20;101956.36;;;11.10;54.03
59545;BME280;45368;55.002;-1.592;2022-08-06T01:24:05;101952.59;;;12.09;52.39
59545;BME280;45368;55.002;-1.592;2022-08-06T01:26:43;101952.78;;;12.13;51.51
59545;BME280;45368;55.002;-1.592;2022-08-06T01:29:16;101952.84;;;11.91;51.69
59545;BME280;45368;55.002;-1.592;2022-08-06T01:31:47;101954.38;;;12.51;50.78
59545;BME280;45368;55.002;-1.592;2022-08-06T01:34:20;101955.72;;;12.48;51.30
59545;BME280;45368;55.002;-1.592;2022-08-06T01:36:51;101954.46;;;11.99;51.49
59545;BME280;45368;55.002;-1.592;2022-08-06T01:39:21;101951.08;;;12.78;50.04
59545;BME280;45368;55.002;-1.592;2022-08-06T01:41:53;101945.28;;;13.22;49.27
59545;BME280;45368;55.002;-1.592;2022-08-06T01:44:25;101947.52;;;12.85;49.96
59545;BME280;45368;55.002;-1.592;2022-08-06T01:46:58;101945.80;;;12.41;50.84
59545;BME280;45368;55.002;-1.592;2022-08-06T01:49:29;101948.21;;;12.25;51.73
59545;BME280;45368;55.002;-1.592;2022-08-06T01:51:59;101941.44;;;12.69;50.92
59545;BME280;45368;55.002;-1.592;2022-08-06T01:54:29;101943.28;;;11.82;52.78
59545;BME280;45368;55.002;-1.592;2022-08-06T01:56:58;101944.72;;;11.79;52.11
59545;BME280;45368;55.002;-1.592;2022-08-06T01:59:31;101943.49;;;11.32;52.88
59545;BME280;45368;55.002;-1.592;2022-08-06T02:02:02;101938.24;;;12.88;50.17
59545;BME280;45368;55.002;-1.592;2022-08-06T02:04:33;101943.35;;;13.48;48.86
59545;BME280;45368;55.002;-1.592;2022-08-06T02:07:03;101945.37;;;13.52;48.41
59545;BME280;45368;55.002;-1.592;2022-08-06T02:09:33;101944.29;;;13.24;48.71
59545;BME280;45368;55.002;-1.592;2022-08-06T02:12:04;101942.04;;;13.23;48.83
59545;BME280;45368;55.002;-1.592;2022-08-06T02:14:37;101941.71;;;13.04;48.77
59545;BME280;45368;55.002;-1.592;2022-08-06T02:17:06;101942.88;;;13.02;49.26
59545;BME280;45368;55.002;-1.592;2022-08-06T02:19:36;101944.47;;;12.53;50.09
59545;BME280;45368;55.002;-1.592;2022-08-06T02:22:05;101941.01;;;13.12;49.34
59545;BME280;45368;55.002;-1.592;2022-08-06T02:24:33;101946.67;;;12.69;50.68
59545;BME280;45368;55.002;-1.592;2022-08-06T02:27:03;101951.02;;;12.30;51.74
59545;BME280;45368;55.002;-1.592;2022-08-06T02:29:33;101953.69;;;11.84;52.65
59545;BME280;45368;55.002;-1.592;2022-08-06T02:32:02;101959.35;;;11.79;53.02
59545;BME280;45368;55.002;-1.592;2022-08-06T02:34:29;101960.64;;;12.13;51.68
59545;BME280;45368;55.002;-1.592;2022-08-06T02:37:01;101968.45;;;11.73;53.13
59545;BME280;45368;55.002;-1.592;2022-08-06T02:39:36;101969.40;;;12.07;52.48
59545;BME280;45368;55.002;-1.592;2022-08-06T02:42:11;101970.72;;;12.13;51.73
59545;BME280;45368;55.002;-1.592;2022-08-06T02:44:47;101973.68;;;12.58;51.47
59545;BME280;45368;55.002;-1.592;2022-08-06T02:47:21;101971.60;;;11.83;52.87
59545;BME280;45368;55.002;-1.592;2022-08-06T02:49:54;101972.76;;;10.69;54.90
59545;BME280;45368;55.002;-1.592;2022-08-06T02:52:30;101976.92;;;11.09;54.55
59545;BME280;45368;55.002;-1.592;2022-08-06T02:55:07;101981.08;;;11.80;53.33
59545;BME280;45368;55.002;-1.592;2022-08-06T02:57:39;101983.43;;;11.27;54.59
59545;BME280;45368;55.002;-1.592;2022-08-06T03:00:09;101983.85;;;11.43;54.54
59545;BME280;45368;55.002;-1.592;2022-08-06T03:02:38;101980.68;;;11.43;53.09
59545;BME280;45368;55.002;-1.592;2022-08-06T03:05:09;101977.72;;;12.13;52.43
59545;BME280;45368;55.002;-1.592;2022-08-06T03:07:39;101974.73;;;12.41;51.76
59545;BME280;45368;55.002;-1.592;2022-08-06T03:10:08;101971.55;;;11.44;53.57
59545;BME280;45368;55.002;-1.592;2022-08-06T03:12:37;101970.77;;;12.12;51.65
59545;BME280;45368;55.002;-1.592;2022-08-06T03:15:06;101974.53;;;12.13;52.29
59545;BME280;45368;55.002;-1.592;2022-08-06T03:17:34;101978.63;;;12.19;52.14
59545;BME280;45368;55.002;-1.592;2022-08-06T03:20:03;101976.86;;;11.30;53.26
59545;BME280;45368;55.002;-1.592;2022-08-06T03:22:31;101970.98;;;12.62;51.19
59545;BME280;45368;55.002;-1.592;2022-08-06T03:24:59;101967.53;;;12.51;51.00
59545;BME280;45368;55.002;-1.592;2022-08-06T03:27:28;101971.95;;;12.33;51.70
59545;BME280;45368;55.002;-1.592;2022-08-06T03:29:56;101976.31;;;12.41;51.23
59545;BME280;45368;55.002;-1.592;2022-08-06T03:32:25;101973.91;;;13.50;49.73
59545;BME280;45368;55.002;-1.592;2022-08-06T03:34:54;101980.14;;;12.44;51.21
59545;BME280;45368;55.002;-1.592;2022-08-06T03:37:23;101977.70;;;12.19;51.79
59545;BME280;45368;55.002;-1.592;2022-08-06T03:39:52;101969.20;;;13.09;50.20
59545;BME280;45368;55.002;-1.592;2022-08-06T03:42:20;101969.69;;;12.52;51.09
59545;BME280;45368;55.002;-1.592;2022-08-06T03:44:47;101962.81;;;13.03;50.17
59545;BME280;45368;55.002;-1.592;2022-08-06T03:47:21;101969.68;;;12.65;50.96
59545;BME280;45368;55.002;-1.592;2022-08-06T03:49:52;101969.78;;;13.73;49.09
59545;BME280;45368;55.002;-1.592;2022-08-06T03:52:26;101969.32;;;14.23;48.20
59545;BME280;45368;55.002;-1.592;2022-08-06T03:54:57;101974.91;;;12.91;49.67
59545;BME280;45368;55.002;-1.592;2022-08-06T03:57:31;101981.48;;;12.62;50.49
59545;BME280;45368;55.002;-1.592;2022-08-06T04:00:00;101978.80;;;13.56;48.92
59545;BME280;45368;55.002;-1.592;2022-08-06T04:02:29;101979.12;;;14.20;47.50
59545;BME280;45368;55.002;-1.592;2022-08-06T04:04:58;101979.26;;;13.95;47.98
59545;BME280;45368;55.002;-1.592;2022-08-06T04:07:27;101980.55;;;14.15;47.54
59545;BME280;45368;55.002;-1.592;2022-08-06T04:09:55;101988.80;;;13.03;50.01
59545;BME280;45368;55.002;-1.592;2022-08-06T04:12:23;101980.20;;;13.81;48.19
59545;BME280;45368;55.002;-1.592;2022-08-06T04:14:51;101976.78;;;14.19;47.93
59545;BME280;45368;55.002;-1.592;2022-08-06T04:17:20;101977.84;;;13.71;48.65
59545;BME280;45368;55.002;-1.592;2022-08-06T04:19:48;101979.78;;;13.51;49.04
59545;BME280;45368;55.002;-1.592;2022-08-06T04:22:16;101981.06;;;13.47;49.75
59545;BME280;45368;55.002;-1.592;2022-08-06T04:24:43;101978.68;;;13.25;50.15
59545;BME280;45368;55.002;-1.592;2022-08-06T04:27:11;101970.29;;;13.89;48.88
59545;BME280;45368;55.002;-1.592;2022-08-06T04:29:41;101968.30;;;14.22;48.00
59545;BME280;45368;55.002;-1.592;2022-08-06T04:32:10;101968.96;;;14.27;47.80
59545;BME280;45368;55.002;-1.592;2022-08-06T04:34:41;101974.63;;;13.45;49.02
59545;BME280;45368;55.002;-1.592;2022-08-06T04:37:09;101975.89;;;13.21;49.79
59545;BME280;45368;55.002;-1.592;2022-08-06T04:39:38;101972.88;;;13.57;48.73
59545;BME280;45368;55.002;-1.592;2022-08-06T04:42:06;101974.23;;;14.11;48.17
59545;BME280;45368;55.002;-1.592;2022-08-06T04:44:35;101980.32;;;13.17;50.21
59545;BME280;45368;55.002;-1.592;2022-08-06T04:47:03;101982.58;;;13.42;49.84
59545;BME280;45368;55.002;-1.592;2022-08-06T04:49:31;101989.29;;;12.38;51.34
59545;BME280;45368;55.002;-1.592;2022-08-06T04:51:59;101989.78;;;12.48;51.47
59545;BME280;45368;55.002;-1.592;2022-08-06T04:54:25;101991.59;;;13.52;49.97
59545;BME280;45368;55.002;-1.592;2022-08-06T04:56:52;102000.05;;;12.88;50.89
59545;BME280;45368;55.002;-1.592;2022-08-06T04:59:19;101999.40;;;13.49;50.60
59545;BME280;45368;55.002;-1.592;2022-08-06T05:01:47;101999.56;;;13.45;50.42
59545;BME280;45368;55.002;-1.592;2022-08-06T05:04:19;102004.31;;;12.92;52.01
59545;BME280;45368;55.002;-1.592;2022-08-06T05:06:57;102008.92;;;12.90;52.06
59545;BME280;45368;55.002;-1.592;2022-08-06T05:09:27;102006.34;;;13.11;51.98
59545;BME280;45368;55.002;-1.592;2022-08-06T05:11:59;102005.78;;;12.32;52.52
59545;BME280;45368;55.002;-1.592;2022-08-06T05:14:35;102010.96;;;12.52;52.82
59545;BME280;45368;55.002;-1.592;2022-08-06T05:17:04;102016.07;;;12.49;53.08
59545;BME280;45368;55.002;-1.592;2022-08-06T05:19:36;102009.82;;;13.31;51.63
59545;BME280;45368;55.002;-1.592;2022-08-06T05:22:07;102016.65;;;12.81;53.62
59545;BME280;45368;55.002;-1.592;2022-08-06T05:24:35;102014.27;;;13.00;52.63
59545;BME280;45368;55.002;-1.592;2022-08-06T05:27:03;102016.44;;;12.99;52.71
59545;BME280;45368;55.002;-1.592;2022-08-06T05:29:30;102017.56;;;13.50;51.63
59545;BME280;45368;55.002;-1.592;2022-08-06T05:31:58;102014.06;;;13.10;52.23
59545;BME280;45368;55.002;-1.592;2022-08-06T05:34:26;102006.14;;;13.86;51.12
59545;BME280;45368;55.002;-1.592;2022-08-06T05:36:53;102002.66;;;13.04;51.65
59545;BME280;45368;55.002;-1.592;2022-08-06T05:39:19;102011.46;;;13.31;52.34
59545;BME280;45368;55.002;-1.592;2022-08-06T05:41:46;102008.64;;;13.23;51.90
59545;BME280;45368;55.002;-1.592;2022-08-06T05:44:14;102002.90;;;13.19;51.61
59545;BME280;45368;55.002;-1.592;2022-08-06T05:46:45;102003.44;;;14.03;50.71
59545;BME280;45368;55.002;-1.592;2022-08-06T05:49:21;102003.67;;;13.93;50.79
59545;BME280;45368;55.002;-1.592;2022-08-06T05:51:55;102008.61;;;13.20;51.14
59545;BME280;45368;55.002;-1.592;2022-08-06T05:54:30;102007.70;;;13.96;50.76
59545;BME280;45368;55.002;-1.592;2022-08-06T05:57:05;102012.87;;;13.89;51.00
59545;BME280;45368;55.002;-1.592;2022-08-06T05:59:35;102011.73;;;13.76;51.41
59545;BME280;45368;55.002;-1.592;2022-08-06T06:02:05;102018.36;;;14.18;50.79
59545;BME280;45368;55.002;-1.592;2022-08-06T06:04:33;102025.37;;;12.97;52.89
59545;BME280;45368;55.002;-1.592;2022-08-06T06:07:01;102023.23;;;13.56;51.74
59545;BME280;45368;55.002;-1.592;2022-08-06T06:09:29;102029.56;;;12.85;52.86
59545;BME280;45368;55.002;-1.592;2022-08-06T06:11:57;102031.74;;;13.37;52.34
59545;BME280;45368;55.002;-1.592;2022-08-06T06:14:33;102036.03;;;13.68;51.59
59545;BME280;45368;55.002;-1.592;2022-08-06T06:17:15;102033.48;;;14.07;50.49
59545;BME280;45368;55.002;-1.592;2022-08-06T06:19:54;102039.98;;;13.88;51.36
59545;BME280;45368;55.002;-1.592;2022-08-06T06:22:27;102041.58;;;13.56;52.64
59545;BME280;45368;55.002;-1.592;2022-08-06T06:24:59;102041.88;;;12.78;52.83
59545;BME280;45368;55.002;-1.592;2022-08-06T06:27:38;102041.30;;;13.68;52.02
59545;BME280;45368;55.002;-1.592;2022-08-06T06:30:13;102045.09;;;13.44;52.85
59545;BME280;45368;55.002;-1.592;2022-08-06T06:32:52;102046.27;;;13.65;52.29
59545;BME280;45368;55.002;-1.592;2022-08-06T06:35:28;102045.13;;;14.01;51.82
59545;BME280;45368;55.002;-1.592;2022-08-06T06:38:03;102044.08;;;13.61;52.23
59545;BME280;45368;55.002;-1.592;2022-08-06T06:40:47;102039.69;;;14.06;51.69
59545;BME280;45368;55.002;-1.592;2022-08-06T06:43:20;102046.10;;;13.61;52.70
59545;BME280;45368;55.002;-1.592;2022-08-06T06:45:54;102042.73;;;14.41;51.51
59545;BME280;45368;55.002;-1.592;2022-08-06T06:48:28;102041.37;;;14.24;51.36
59545;BME280;45368;55.002;-1.592;2022-08-06T06:51:03;102042.71;;;14.35;51.13
59545;BME280;45368;55.002;-1.592;2022-08-06T06:53:37;102046.72;;;14.13;50.87
59545;BME280;45368;55.002;-1.592;2022-08-06T06:56:08;102045.14;;;14.03;51.73
59545;BME280;45368;55.002;-1.592;2022-08-06T06:58:39;102040.09;;;14.31;51.21
59545;BME280;45368;55.002;-1.592;2022-08-06T07:01:11;102042.37;;;14.45;50.52
59545;BME280;45368;55.002;-1.592;2022-08-06T07:03:40;102043.94;;;14.78;49.99
59545;BME280;45368;55.002;-1.592;2022-08-06T07:06:10;102044.53;;;14.84;49.88
59545;BME280;45368;55.002;-1.592;2022-08-06T07:08:41;102046.32;;;14.59;50.47
59545;BME280;45368;55.002;-1.592;2022-08-06T07:11:11;102046.04;;;14.09;51.05
59545;BME280;45368;55.002;-1.592;2022-08-06T07:13:41;102047.04;;;14.84;49.57
59545;BME280;45368;55.002;-1.592;2022-08-06T07:16:11;102045.53;;;15.01;50.42
59545;BME280;45368;55.002;-1.592;2022-08-06T07:18:39;102045.51;;;14.75;49.86
59545;BME280;45368;55.002;-1.592;2022-08-06T07:21:08;102046.64;;;14.46;50.23
59545;BME280;45368;55.002;-1.592;2022-08-06T07:23:35;102047.29;;;15.31;49.08
59545;BME280;45368;55.002;-1.592;2022-08-06T07:26:03;102047.06;;;15.90;47.96
59545;BME280;45368;55.002;-1.592;2022-08-06T07:28:31;102049.44;;;16.06;48.33
59545;BME280;45368;55.002;-1.592;2022-08-06T07:31:02;102045.93;;;16.00;48.07
59545;BME280;45368;55.002;-1.592;2022-08-06T07:33:32;102043.55;;;16.56;46.11
59545;BME280;45368;55.002;-1.592;2022-08-06T07:36:00;102045.00;;;16.97;44.82
59545;BME280;45368;55.002;-1.592;2022-08-06T07:38:28;102041.08;;;17.53;44.02
59545;BME280;45368;55.002;-1.592;2022-08-06T07:41:02;102044.35;;;17.78;43.29
59545;BME280;45368;55.002;-1.592;2022-08-06T07:43:34;102045.33;;;17.51;42.17
59545;BME280;45368;55.002;-1.592;2022-08-06T07:46:04;102044.99;;;17.64;42.24
59545;BME280;45368;55.002;-1.592;2022-08-06T07:48:37;102052.47;;;17.07;43.05
59545;BME280;45368;55.002;-1.592;2022-08-06T07:51:05;102045.55;;;15.67;46.06
59545;BME280;45368;55.002;-1.592;2022-08-06T07:53:35;102055.41;;;15.75;46.83
59545;BME280;45368;55.002;-1.592;2022-08-06T07:56:04;102053.74;;;15.64;46.97
59545;BME280;45368;55.002;-1.592;2022-08-06T07:58:33;102049.81;;;16.61;45.24
59545;BME280;45368;55.002;-1.592;2022-08-06T08:01:01;102048.23;;;17.21;43.27
59545;BME280;45368;55.002;-1.592;2022-08-06T08:03:29;102047.98;;;18.43;41.86
59545;BME280;45368;55.002;-1.592;2022-08-06T08:05:58;102040.79;;;19.87;38.75
59545;BME280;45368;55.002;-1.592;2022-08-06T08:08:25;102034.93;;;20.89;36.62
59545;BME280;45368;55.002;-1.592;2022-08-06T08:10:54;102035.41;;;21.60;35.36
59545;BME280;45368;55.002;-1.592;2022-08-06T08:13:21;102036.28;;;21.84;34.76
59545;BME280;45368;55.002;-1.592;2022-08-06T08:15:50;102040.26;;;21.60;34.34
59545;BME280;45368;55.002;-1.592;2022-08-06T08:18:17;102038.38;;;21.78;33.85
59545;BME280;45368;55.002;-1.592;2022-08-06T08:20:45;102036.27;;;21.84;33.47
59545;BME280;45368;55.002;-1.592;2022-08-06T08:23:13;102039.34;;;21.20;34.88
59545;BME280;45368;55.002;-1.592;2022-08-06T08:25:41;102043.59;;;19.76;36.50
59545;BME280;45368;55.002;-1.592;2022-08-06T08:28:10;102046.64;;;19.33;37.82
59545;BME280;45368;55.002;-1.592;2022-08-06T08:30:37;102039.69;;;19.29;38.06
59545;BME280;45368;55.002;-1.592;2022-08-06T08:33:05;102036.22;;;19.96;36.97
59545;BME280;45368;55.002;-1.592;2022-08-06T08:35:32;102039.59;;;20.35;36.23
59545;BME280;45368;55.002;-1.592;2022-08-06T08:37:59;102042.60;;;19.47;37.89
59545;BME280;45368;55.002;-1.592;2022-08-06T08:40:26;102036.10;;;20.27;36.68
59545;BME280;45368;55.002;-1.592;2022-08-06T08:42:56;102037.16;;;20.58;36.55
59545;BME280;45368;55.002;-1.592;2022-08-06T08:45:26;102034.86;;;21.00;35.67
59545;BME280;45368;55.002;-1.592;2022-08-06T08:47:54;102042.03;;;19.51;36.72
59545;BME280;45368;55.002;-1.592;2022-08-06T08:50:30;102053.70;;;18.00;39.87
59545;BME280;45368;55.002;-1.592;2022-08-06T08:53:02;102049.05;;;18.14;40.28
59545;BME280;45368;55.002;-1.592;2022-08-06T08:55:29;102045.36;;;18.82;39.31
59545;BME280;45368;55.002;-1.592;2022-08-06T08:57:57;102038.42;;;18.73;39.44
59545;BME280;45368;55.002;-1.592;2022-08-06T09:00:25;102040.32;;;18.11;41.07
59545;BME280;45368;55.002;-1.592;2022-08-06T09:02:52;102044.42;;;16.77;43.14
59545;BME280;45368;55.002;-1.592;2022-08-06T09:05:20;102038.06;;;17.28;42.08
59545;BME280;45368;55.002;-1.592;2022-08-06T09:07:48;102042.22;;;17.71;43.32
59545;BME280;45368;55.002;-1.592;2022-08-06T09:10:15;102043.51;;;16.61;43.82
59545;BME280;45368;55.002;-1.592;2022-08-06T09:12:43;102038.71;;;16.83;43.51
59545;BME280;45368;55.002;-1.592;2022-08-06T09:15:10;102039.82;;;17.57;42.99
59545;BME280;45368;55.002;-1.592;2022-08-06T09:17:38;102038.82;;;17.55;42.77
59545;BME280;45368;55.002;-1.592;2022-08-06T09:20:06;102041.73;;;16.81;43.03
59545;BME280;45368;55.002;-1.592;2022-08-06T09:22:34;102044.33;;;17.04;42.59
59545;BME280;45368;55.002;-1.592;2022-08-06T09:25:02;102046.81;;;17.76;42.77
59545;BME280;45368;55.002;-1.592;2022-08-06T09:27:33;102047.01;;;16.67;43.81
59545;BME280;45368;55.002;-1.592;2022-08-06T09:30:03;102050.64;;;17.23;43.37
59545;BME280;45368;55.002;-1.592;2022-08-06T09:32:37;102057.17;;;16.76;44.47
59545;BME280;45368;55.002;-1.592;2022-08-06T09:35:16;102060.60;;;15.97;45.52
59545;BME280;45368;55.002;-1.592;2022-08-06T09:37:44;102070.68;;;16.16;45.07
59545;BME280;45368;55.002;-1.592;2022-08-06T09:40:12;102069.67;;;16.33;45.02
59545;BME280;45368;55.002;-1.592;2022-08-06T09:42:43;102064.77;;;16.35;45.62
59545;BME280;45368;55.002;-1.592;2022-08-06T09:45:13;102062.60;;;16.31;45.16
59545;BME280;45368;55.002;-1.592;2022-08-06T09:47:41;102057.74;;;16.75;44.11
59545;BME280;45368;55.002;-1.592;2022-08-06T09:50:10;102060.53;;;17.06;44.04
59545;BME280;45368;55.002;-1.592;2022-08-06T09:52:37;102063.89;;;17.41;42.52
59545;BME280;45368;55.002;-1.592;2022-08-06T09:55:04;102066.32;;;17.41;43.40
59545;BME280;45368;55.002;-1.592;2022-08-06T09:57:47;102061.75;;;17.10;44.20
59545;BME280;45368;55.002;-1.592;2022-08-06T10:00:25;102059.65;;;17.22;43.34
59545;BME280;45368;55.002;-1.592;2022-08-06T10:02:56;102056.25;;;16.72;44.32
59545;BME280;45368;55.002;-1.592;2022-08-06T10:05:23;102064.60;;;16.65;43.99
59545;BME280;45368;55.002;-1.592;2022-08-06T10:08:03;102066.02;;;16.72;43.64
59545;BME280;45368;55.002;-1.592;2022-08-06T10:10:39;102069.50;;;17.03;43.03
59545;BME280;45368;55.002;-1.592;2022-08-06T10:13:12;102068.74;;;16.81;43.75
59545;BME280;45368;55.002;-1.592;2022-08-06T10:15:40;102065.72;;;16.85;44.04
59545;BME280;45368;55.002;-1.592;2022-08-06T10:18:07;102070.95;;;17.16;44.11
59545;BME280;45368;55.002;-1.592;2022-08-06T10:20:35;102067.86;;;17.02;44.23
59545;BME280;45368;55.002;-1.592;2022-08-06T10:23:02;102067.57;;;17.18;43.95
59545;BME280;45368;55.002;-1.592;2022-08-06T10:25:30;102070.01;;;17.42;43.77
59545;BME280;45368;55.002;-1.592;2022-08-06T10:27:59;102061.48;;;17.43;43.37
59545;BME280;45368;55.002;-1.592;2022-08-06T10:30:27;102055.50;;;18.28;40.80
59545;BME280;45368;55.002;-1.592;2022-08-06T10:32:59;102059.52;;;17.75;41.76
59545;BME280;45368;55.002;-1.592;2022-08-06T10:35:28;102058.01;;;17.71;39.97
59545;BME280;45368;55.002;-1.592;2022-08-06T10:38:00;102061.97;;;17.50;40.62
59545;BME280;45368;55.002;-1.592;2022-08-06T10:40:27;102057.88;;;17.74;39.11
59545;BME280;45368;55.002;-1.592;2022-08-06T10:42:55;102052.83;;;18.32;39.17
59545;BME280;45368;55.002;-1.592;2022-08-06T10:45:23;102052.42;;;18.05;40.24
59545;BME280;45368;55.002;-1.592;2022-08-06T10:47:51;102051.81;;;17.79;39.91
59545;BME280;45368;55.002;-1.592;2022-08-06T10:50:18;102046.75;;;18.21;39.97
59545;BME280;45368;55.002;-1.592;2022-08-06T10:53:48;102047.63;;;18.06;39.53
59545;BME280;45368;55.002;-1.592;2022-08-06T10:56:16;102042.42;;;18.52;38.80
59545;BME280;45368;55.002;-1.592;2022-08-06T10:58:44;102045.44;;;18.37;39.01
59545;BME280;45368;55.002;-1.592;2022-08-06T11:01:18;102045.94;;;18.56;38.43
59545;BME280;45368;55.002;-1.592;2022-08-06T11:03:58;102043.09;;;20.03;36.24
59545;BME280;45368;55.002;-1.592;2022-08-06T11:07:08;102027.73;;;21.32;32.79
59545;BME280;45368;55.002;-1.592;2022-08-06T11:10:02;102020.65;;;23.93;29.50
59545;BME280;45368;55.002;-1.592;2022-08-06T11:12:46;102019.03;;;24.09;28.88
59545;BME280;45368;55.002;-1.592;2022-08-06T11:15:15;102013.79;;;24.89;27.92
59545;BME280;45368;55.002;-1.592;2022-08-06T11:17:44;102001.61;;;27.12;25.65
59545;BME280;45368;55.002;-1.592;2022-08-06T11:20:45;102005.80;;;27.92;24.42
59545;BME280;45368;55.002;-1.592;2022-08-06T11:23:30;102000.72;;;28.60;23.59
59545;BME280;45368;55.002;-1.592;2022-08-06T11:25:59;102003.96;;;28.33;23.33
59545;BME280;45368;55.002;-1.592;2022-08-06T11:29:00;102006.52;;;28.50;23.08
59545;BME280;45368;55.002;-1.592;2022-08-06T11:31:34;102009.15;;;25.60;26.08
59545;BME280;45368;55.002;-1.592;2022-08-06T11:34:04;102013.18;;;26.45;25.34
59545;BME280;45368;55.002;-1.592;2022-08-06T11:36:45;102006.43;;;24.90;27.57
59545;BME280;45368;55.002;-1.592;2022-08-06T11:39:13;102010.80;;;23.97;27.80
59545;BME280;45368;55.002;-1.592;2022-08-06T11:41:47;102013.85;;;23.03;30.05
59545;BME280;45368;55.002;-1.592;2022-08-06T11:44:15;102010.31;;;22.45;31.40
59545;BME280;45368;55.002;-1.592;2022-08-06T11:46:44;102014.12;;;20.87;33.30
59545;BME280;45368;55.002;-1.592;2022-08-06T11:49:14;102013.55;;;21.40;32.64
59545;BME280;45368;55.002;-1.592;2022-08-06T11:51:44;102011.44;;;20.79;33.86
59545;BME280;45368;55.002;-1.592;2022-08-06T11:54:13;102007.82;;;20.68;34.13
59545;BME280;45368;55.002;-1.592;2022-08-06T11:57:45;102005.17;;;20.89;33.56
59545;BME280;45368;55.002;-1.592;2022-08-06T12:00:16;102005.51;;;20.78;34.61
59545;BME280;45368;55.002;-1.592;2022-08-06T12:02:49;102010.81;;;19.82;35.12
59545;BME280;45368;55.002;-1.592;2022-08-06T12:05:35;102007.30;;;20.31;35.45
59545;BME280;45368;55.002;-1.592;2022-08-06T12:08:15;101999.56;;;20.41;36.09
59545;BME280;45368;55.002;-1.592;2022-08-06T12:11:22;101998.07;;;20.46;35.19
59545;BME280;45368;55.002;-1.592;2022-08-06T12:13:51;102004.51;;;20.82;36.26
59545;BME280;45368;55.002;-1.592;2022-08-06T12:16:37;101996.76;;;20.50;35.75
59545;BME280;45368;55.002;-1.592;2022-08-06T12:19:11;102016.27;;;19.89;35.94
59545;BME280;45368;55.002;-1.592;2022-08-06T12:21:39;102006.17;;;19.63;36.23
59545;BME280;45368;55.002;-1.592;2022-08-06T12:24:07;102006.69;;;20.99;35.37
59545;BME280;45368;55.002;-1.592;2022-08-06T12:26:35;102001.67;;;20.86;36.44
59545;BME280;45368;55.002;-1.592;2022-08-06T12:29:04;101996.38;;;20.88;35.97
59545;BME280;45368;55.002;-1.592;2022-08-06T12:31:35;102004.09;;;21.38;34.58
59545;BME280;45368;55.002;-1.592;2022-08-06T12:34:03;102010.51;;;20.30;37.12
59545;BME280;45368;55.002;-1.592;2022-08-06T12:36:33;102011.76;;;19.34;38.44
59545;BME280;45368;55.002;-1.592;2022-08-06T12:39:03;102007.82;;;19.51;37.67
59545;BME280;45368;55.002;-1.592;2022-08-06T12:41:39;102001.66;;;19.90;37.12
59545;BME280;45368;55.002;-1.592;2022-08-06T12:44:09;102002.92;;;20.52;37.34
59545;BME280;45368;55.002;-1.592;2022-08-06T12:46:37;102001.19;;;20.26;37.80
59545;BME280;45368;55.002;-1.592;2022-08-06T12:49:04;101997.16;;;20.36;37.68
59545;BME280;45368;55.002;-1.592;2022-08-06T12:51:32;101988.31;;;19.84;37.96
59545;BME280;45368;55.002;-1.592;2022-08-06T12:54:00;101993.58;;;19.52;38.61
59545;BME280;45368;55.002;-1.592;2022-08-06T12:56:30;101986.94;;;19.30;39.14
59545;BME280;45368;55.002;-1.592;2022-08-06T12:59:00;101973.22;;;18.88;39.54
59545;BME280;45368;55.002;-1.592;2022-08-06T13:01:29;101977.81;;;18.79;41.51